createdAt,value
2022-09-15T00:01:02.633Z,100873.13
2022-09-15T00:03:29.237Z,100872.97
2022-09-15T00:05:56.171Z,100876.03
2022-09-15T00:08:22.997Z,100873.44
2022-09-15T00:10:58.451Z,100868.78
2022-09-15T00:13:25.854Z,100875.75
2022-09-15T00:15:52.991Z,100869.47
2022-09-15T00:18:19.960Z,100867.44
2022-09-15T00:20:46.691Z,100870.75
2022-09-15T00:23:14.814Z,100871.16
2022-09-15T00:25:45.776Z,100877.34
2022-09-15T00:28:13.978Z,100873.28
2022-09-15T00:30:42.673Z,100875.31
2022-09-15T00:33:09.772Z,100881.06
2022-09-15T00:35:38.925Z,100881.50
2022-09-15T00:38:05.872Z,100876.38
2022-09-15T00:40:32.335Z,100873.53
2022-09-15T00:42:58.846Z,100872.72
2022-09-15T00:45:26.023Z,100876.38
2022-09-15T00:47:52.716Z,100876.56
2022-09-15T00:50:20.736Z,100878.84
2022-09-15T00:52:56.860Z,100877.63
2022-09-15T00:55:32.384Z,100883.34
2022-09-15T00:58:10.679Z,100883.78
2022-09-15T01:00:42.101Z,100882.16
2022-09-15T01:03:08.687Z,100886.41
2022-09-15T01:05:48.426Z,100877.28
2022-09-15T01:08:21.626Z,100878.31
2022-09-15T01:10:48.125Z,100873.66
2022-09-15T01:13:15.077Z,100882.00
2022-09-15T01:16:09.853Z,100872.63
2022-09-15T01:19:01.370Z,100876.50
2022-09-15T01:21:43.045Z,100875.50
2022-09-15T01:24:34.368Z,100883.47
2022-09-15T01:27:37.670Z,100886.31
2022-09-15T01:30:09.498Z,100890.78
2022-09-15T01:33:06.933Z,100884.44
2022-09-15T01:35:33.491Z,100886.91
2022-09-15T01:38:18.808Z,100893.59
2022-09-15T01:40:52.961Z,100893.03
2022-09-15T01:43:22.313Z,100888.13
2022-09-15T01:45:51.247Z,100891.59
2022-09-15T01:48:22.309Z,100890.38
2022-09-15T01:50:56.103Z,100889.56
2022-09-15T01:53:24.062Z,100894.88
2022-09-15T01:55:56.389Z,100898.50
2022-09-15T01:58:23.293Z,100894.25
2022-09-15T02:00:57.265Z,100892.81
2022-09-15T02:03:35.109Z,100891.44
2022-09-15T02:06:08.811Z,100891.44
2022-09-15T02:08:49.873Z,100891.19
2022-09-15T02:11:19.627Z,100886.13
2022-09-15T02:13:52.193Z,100886.94
2022-09-15T02:16:22.458Z,100889.59
2022-09-15T02:18:58.090Z,100887.56
2022-09-15T02:21:37.273Z,100887.75
2022-09-15T02:24:13.259Z,100889.41
2022-09-15T02:26:42.111Z,100885.13
2022-09-15T02:29:13.893Z,100882.69
2022-09-15T02:31:42.569Z,100885.91
2022-09-15T02:34:16.112Z,100890.41
2022-09-15T02:36:43.041Z,100895.72
2022-09-15T02:39:15.053Z,100889.41
2022-09-15T02:41:41.941Z,100894.72
2022-09-15T02:44:09.981Z,100896.91
2022-09-15T02:46:36.826Z,100905.25
2022-09-15T02:49:03.610Z,100896.09
2022-09-15T02:51:31.027Z,100901.38
2022-09-15T02:53:57.507Z,100891.41
2022-09-15T02:56:23.948Z,100896.69
2022-09-15T02:58:50.437Z,100888.53
2022-09-15T03:01:17.483Z,100892.00
2022-09-15T03:03:45.699Z,100898.72
2022-09-15T03:06:21.019Z,100896.88
2022-09-15T03:08:50.914Z,100900.13
2022-09-15T03:11:19.346Z,100893.00
2022-09-15T03:13:46.832Z,100894.84
2022-09-15T03:16:15.450Z,100891.97
2022-09-15T03:18:43.089Z,100890.13
2022-09-15T03:21:13.341Z,100897.03
2022-09-15T03:23:40.942Z,100890.13
2022-09-15T03:26:09.080Z,100898.88
2022-09-15T03:28:36.147Z,100895.22
2022-09-15T03:31:02.873Z,100900.53
2022-09-15T03:33:29.923Z,100901.53
2022-09-15T03:35:57.020Z,100909.47
2022-09-15T03:38:24.020Z,100909.47
2022-09-15T03:41:04.501Z,100913.16
2022-09-15T03:43:32.261Z,100916.84
2022-09-15T03:45:59.831Z,100917.66
2022-09-15T03:48:27.572Z,100909.91
2022-09-15T03:50:54.133Z,100909.91
2022-09-15T03:53:20.722Z,100915.19
2022-09-15T03:55:48.890Z,100917.03
2022-09-15T03:58:17.445Z,100909.09
2022-09-15T04:00:45.765Z,100906.44
2022-09-15T04:03:12.752Z,100923.97
2022-09-15T04:05:39.860Z,100928.44
2022-09-15T04:08:06.569Z,100927.63
2022-09-15T04:10:33.378Z,100920.72
2022-09-15T04:12:59.948Z,100916.22
2022-09-15T04:15:26.444Z,100909.72
2022-09-15T04:17:52.864Z,100908.69
2022-09-15T04:20:19.348Z,100913.97
2022-09-15T04:22:45.808Z,100907.66
2022-09-15T04:25:12.298Z,100914.38
2022-09-15T04:27:39.142Z,100909.28
2022-09-15T04:30:08.612Z,100912.53
2022-09-15T04:32:37.867Z,100913.34
2022-09-15T04:35:04.872Z,100924.97
2022-09-15T04:37:32.239Z,100925.19
2022-09-15T04:39:59.115Z,100921.50
2022-09-15T04:42:25.924Z,100911.72
2022-09-15T04:44:52.372Z,100911.72
2022-09-15T04:47:19.288Z,100911.94
2022-09-15T04:49:46.542Z,100909.88
2022-09-15T04:52:13.028Z,100914.38
2022-09-15T04:54:39.536Z,100911.50
2022-09-15T04:57:06.397Z,100917.25
2022-09-15T04:59:32.929Z,100912.13
2022-09-15T05:01:59.564Z,100910.50
2022-09-15T05:04:26.202Z,100908.69
2022-09-15T05:06:52.696Z,100911.31
2022-09-15T05:09:19.224Z,100907.66
2022-09-15T05:11:45.673Z,100917.44
2022-09-15T05:14:12.282Z,100915.41
2022-09-15T05:16:40.258Z,100914.78
2022-09-15T05:19:06.810Z,100919.09
2022-09-15T05:21:33.839Z,100915.97
2022-09-15T05:24:00.472Z,100921.28
2022-09-15T05:26:28.981Z,100921.28
2022-09-15T05:28:57.174Z,100915.19
2022-09-15T05:31:30.936Z,100915.97
2022-09-15T05:34:00.127Z,100915.97
2022-09-15T05:36:26.604Z,100920.28
2022-09-15T05:38:53.997Z,100917.63
2022-09-15T05:41:20.846Z,100918.44
2022-09-15T05:43:48.442Z,100919.44
2022-09-15T05:46:15.994Z,100923.53
2022-09-15T05:48:42.718Z,100917.19
2022-09-15T05:51:09.403Z,100930.03
2022-09-15T05:53:36.899Z,100928.78
2022-09-15T05:56:06.699Z,100926.53
2022-09-15T05:58:33.540Z,100926.31
2022-09-15T06:01:08.681Z,100926.75
2022-09-15T06:03:35.921Z,100931.44
2022-09-15T06:06:04.752Z,100930.97
2022-09-15T06:08:33.711Z,100927.91
2022-09-15T06:11:15.638Z,100924.41
2022-09-15T06:13:43.093Z,100929.69
2022-09-15T06:16:13.274Z,100930.66
2022-09-15T06:18:41.035Z,100933.72
2022-09-15T06:21:13.167Z,100935.56
2022-09-15T06:23:40.485Z,100935.78
2022-09-15T06:26:08.384Z,100939.44
2022-09-15T06:28:35.424Z,100946.81
2022-09-15T06:31:02.037Z,100946.81
2022-09-15T06:33:28.493Z,100953.31
2022-09-15T06:35:55.007Z,100951.03
2022-09-15T06:38:21.569Z,100955.13
2022-09-15T06:41:00.581Z,100952.25
2022-09-15T06:43:27.134Z,100951.00
2022-09-15T06:45:53.667Z,100961.38
2022-09-15T06:48:24.786Z,100961.19
2022-09-15T06:50:55.279Z,100966.66
2022-09-15T06:53:22.256Z,100975.16
2022-09-15T06:55:48.798Z,100978.97
2022-09-15T06:58:15.698Z,100974.81
2022-09-15T07:00:42.531Z,100973.09
2022-09-15T07:03:09.190Z,100971.09
2022-09-15T07:05:35.828Z,100980.91
2022-09-15T07:08:02.779Z,100981.75
2022-09-15T07:10:29.691Z,100986.75
2022-09-15T07:12:56.484Z,100990.47
2022-09-15T07:15:24.924Z,100998.94
2022-09-15T07:17:51.371Z,101002.69
2022-09-15T07:20:17.856Z,101003.41
2022-09-15T07:22:44.282Z,100998.97
2022-09-15T07:25:10.774Z,101006.78
2022-09-15T07:27:37.187Z,101011.47
2022-09-15T07:30:08.474Z,101014.53
2022-09-15T07:32:34.987Z,101011.44
2022-09-15T07:35:02.318Z,101015.88
2022-09-15T07:37:28.880Z,101021.94
2022-09-15T07:39:55.429Z,101022.69
2022-09-15T07:42:21.956Z,101025.06
2022-09-15T07:44:48.400Z,101024.63
2022-09-15T07:47:14.817Z,101025.97
2022-09-15T07:49:42.149Z,101028.94
2022-09-15T07:52:08.774Z,101016.38
2022-09-15T07:54:35.251Z,101017.78
2022-09-15T07:57:01.951Z,101023.00
2022-09-15T07:59:28.535Z,101022.81
2022-09-15T08:01:55.225Z,101029.91
2022-09-15T08:04:21.826Z,101034.13
2022-09-15T08:06:48.274Z,101035.50
2022-09-15T08:09:17.425Z,101041.41
2022-09-15T08:11:44.386Z,101042.31
2022-09-15T08:14:11.024Z,101050.22
2022-09-15T08:16:38.602Z,101049.19
2022-09-15T08:19:05.382Z,101041.25
2022-09-15T08:21:31.848Z,101046.84
2022-09-15T08:24:01.219Z,101053.50
2022-09-15T08:26:29.394Z,101059.56
2022-09-15T08:28:56.402Z,101064.09
2022-09-15T08:31:24.441Z,101063.97
2022-09-15T08:33:54.052Z,101065.03
2022-09-15T08:36:21.239Z,101074.91
2022-09-15T08:38:47.921Z,101066.75
2022-09-15T08:41:21.404Z,101077.53
2022-09-15T08:43:59.184Z,101084.69
2022-09-15T08:46:34.919Z,101083.91
2022-09-15T08:49:10.491Z,101086.69
2022-09-15T08:51:44.663Z,101085.88
2022-09-15T08:54:18.757Z,101088.63
2022-09-15T08:56:45.852Z,101095.47
2022-09-15T08:59:15.409Z,101094.22
2022-09-15T09:01:48.027Z,101099.78
2022-09-15T09:04:32.797Z,101095.81
2022-09-15T09:07:04.727Z,101096.84
2022-09-15T09:09:52.858Z,101100.91
2022-09-15T09:12:29.323Z,101096.84
2022-09-15T09:15:32.917Z,101101.56
2022-09-15T09:18:21.200Z,101104.16
2022-09-15T09:20:56.681Z,101099.06
2022-09-15T09:23:28.319Z,101092.25
2022-09-15T09:25:57.325Z,101096.75
2022-09-15T09:28:36.240Z,101100.31
2022-09-15T09:31:07.987Z,101096.94
2022-09-15T09:33:47.365Z,101097.75
2022-09-15T09:36:14.755Z,101102.16
2022-09-15T09:38:44.471Z,101105.03
2022-09-15T09:41:19.629Z,101101.53
2022-09-15T09:43:49.010Z,101105.91
2022-09-15T09:46:18.142Z,101099.75
2022-09-15T09:49:03.580Z,101103.25
2022-09-15T09:51:39.878Z,101106.28
2022-09-15T09:54:16.981Z,101112.91
2022-09-15T09:56:45.850Z,101111.56
2022-09-15T09:59:42.780Z,101107.53
2022-09-15T10:02:12.198Z,101115.44
2022-09-15T10:04:40.940Z,101118.03
2022-09-15T10:07:08.810Z,101124.09
2022-09-15T10:09:37.050Z,101115.53
2022-09-15T10:12:05.853Z,101103.97
2022-09-15T10:14:36.670Z,101111.28
2022-09-15T10:17:05.842Z,101097.00
2022-09-15T10:19:36.624Z,101102.25
2022-09-15T10:22:04.690Z,101106.75
2022-09-15T10:24:35.478Z,101107.22
2022-09-15T10:27:28.607Z,101098.63
2022-09-15T10:29:56.068Z,101100.16
2022-09-15T10:32:25.441Z,101097.13
2022-09-15T10:35:04.953Z,101099.78
2022-09-15T10:37:55.733Z,101088.78
2022-09-15T10:40:39.903Z,101091.69
2022-09-15T10:43:40.135Z,101074.59
2022-09-15T10:46:19.180Z,101069.25
2022-09-15T10:49:16.130Z,101068.56
2022-09-15T10:51:58.833Z,101072.66
2022-09-15T10:54:54.800Z,101069.94
2022-09-15T10:57:33.465Z,101070.66
2022-09-15T11:00:09.874Z,101061.78
2022-09-15T11:02:58.396Z,101067.81
2022-09-15T11:05:34.310Z,101074.63
2022-09-15T11:08:24.414Z,101066.78
2022-09-15T11:11:17.804Z,101072.47
2022-09-15T11:14:18.197Z,101072.06
2022-09-15T11:16:49.013Z,101067.03
2022-09-15T11:20:09.301Z,101073.75
2022-09-15T11:22:46.110Z,101071.88
2022-09-15T11:25:23.207Z,101070.47
2022-09-15T11:27:57.663Z,101060.47
2022-09-15T11:30:29.009Z,101052.53
2022-09-15T11:33:19.038Z,101055.41
2022-09-15T11:35:53.861Z,101067.13
2022-09-15T11:38:53.061Z,101052.00
2022-09-15T11:41:34.469Z,101063.19
2022-09-15T11:44:03.576Z,101055.94
2022-09-15T11:46:51.731Z,101062.53
2022-09-15T11:49:23.149Z,101075.94
2022-09-15T11:51:56.389Z,101073.56
2022-09-15T11:54:37.277Z,101087.72
2022-09-15T11:57:04.185Z,101083.41
2022-09-15T11:59:42.046Z,101076.13
2022-09-15T12:02:34.905Z,101062.16
2022-09-15T12:05:08.403Z,101063.13
2022-09-15T12:07:47.489Z,101056.72
2022-09-15T12:10:19.024Z,101051.34
2022-09-15T12:12:46.979Z,101057.34
2022-09-15T12:15:27.384Z,101067.50
2022-09-15T12:18:06.647Z,101066.28
2022-09-15T12:21:03.089Z,101052.34
2022-09-15T12:23:34.707Z,101058.03
2022-09-15T12:26:20.211Z,101059.19
2022-09-15T12:28:46.568Z,101059.19
2022-09-15T12:31:25.297Z,101063.34
2022-09-15T12:33:51.647Z,101062.38
2022-09-15T12:36:37.300Z,101071.16
2022-09-15T12:39:20.822Z,101075.28
2022-09-15T12:42:06.179Z,101065.06
2022-09-15T12:44:37.782Z,101074.03
2022-09-15T12:47:07.530Z,101080.06
2022-09-15T12:49:43.687Z,101077.59
2022-09-15T12:52:11.898Z,101089.16
2022-09-15T12:54:41.988Z,101092.97
2022-09-15T12:57:24.175Z,101092.44
2022-09-15T13:00:16.872Z,101107.66
2022-09-15T13:02:51.453Z,101115.56
2022-09-15T13:05:42.922Z,101121.84
2022-09-15T13:08:12.606Z,101112.66
2022-09-15T13:10:43.179Z,101111.06
2022-09-15T13:13:20.298Z,101107.94
2022-09-15T13:15:50.571Z,101108.94
2022-09-15T13:18:19.593Z,101109.19
2022-09-15T13:20:54.716Z,101109.31
2022-09-15T13:23:25.643Z,101119.63
2022-09-15T13:25:56.450Z,101118.19
2022-09-15T13:28:24.916Z,101108.94
2022-09-15T13:31:18.031Z,101104.91
2022-09-15T13:40:14.472Z,101096.09
2022-09-15T13:43:04.945Z,101094.69
2022-09-15T13:46:04.093Z,101091.66
2022-09-15T13:49:01.494Z,101088.38
2022-09-15T13:51:30.728Z,101085.91
2022-09-15T13:54:05.974Z,101094.44
2022-09-15T13:56:39.928Z,101085.38
2022-09-15T13:59:14.135Z,101103.84
2022-09-15T14:01:42.744Z,101097.81
2022-09-15T14:04:16.776Z,101093.41
2022-09-15T14:06:48.055Z,101090.19
2022-09-15T14:09:22.867Z,101088.44
2022-09-15T14:11:55.423Z,101108.63
2022-09-15T14:14:28.121Z,101108.16
2022-09-15T14:16:56.445Z,101118.69
2022-09-15T14:19:36.329Z,101127.94
2022-09-15T14:22:17.797Z,101121.44
2022-09-15T14:24:44.564Z,101114.81
2022-09-15T14:27:12.665Z,101117.84
2022-09-15T14:29:40.930Z,101125.97
2022-09-15T14:32:13.558Z,101120.41
2022-09-15T14:34:42.048Z,101116.28
2022-09-15T14:37:19.574Z,101120.56
2022-09-15T14:39:56.947Z,101124.72
2022-09-15T14:42:30.723Z,101117.06
2022-09-15T14:48:02.764Z,101112.94
2022-09-15T14:50:33.294Z,101115.81
2022-09-15T14:53:23.560Z,101119.06
2022-09-15T14:56:01.309Z,101114.81
2022-09-15T14:59:08.837Z,101122.09
2022-09-15T15:01:37.705Z,101111.81
2022-09-15T15:04:34.583Z,101112.94
2022-09-15T15:07:07.731Z,101107.94
2022-09-15T15:09:40.312Z,101109.53
2022-09-15T15:12:17.374Z,101111.47
2022-09-15T15:14:44.206Z,101109.78
2022-09-15T15:17:26.876Z,101118.41
2022-09-15T15:20:05.750Z,101103.66
2022-09-15T15:22:32.530Z,101112.06
2022-09-15T15:24:59.933Z,101109.28
2022-09-15T15:27:32.466Z,101110.44
2022-09-15T15:30:37.047Z,101116.94
2022-09-15T15:33:19.874Z,101106.50
2022-09-15T15:35:47.129Z,101109.75
2022-09-15T15:38:19.444Z,101122.03
2022-09-15T15:40:46.917Z,101111.75
2022-09-15T15:43:19.577Z,101118.94
2022-09-15T15:46:00.873Z,101128.91
2022-09-15T15:48:30.087Z,101132.47
2022-09-15T15:50:59.341Z,101143.59
2022-09-15T15:53:26.867Z,101136.53
2022-09-15T15:55:55.110Z,101152.38
2022-09-15T15:58:22.560Z,101148.44
2022-09-15T16:00:53.800Z,101148.00
2022-09-15T16:03:21.136Z,101148.09
2022-09-15T16:05:50.777Z,101145.91
2022-09-15T16:08:31.551Z,101157.69
2022-09-15T16:11:00.577Z,101156.66
2022-09-15T16:13:27.525Z,101161.72
2022-09-15T16:15:56.697Z,101155.16
2022-09-15T16:18:23.551Z,101149.91
2022-09-15T16:20:50.194Z,101156.88
2022-09-15T16:23:19.496Z,101150.22
2022-09-15T16:25:54.833Z,101147.44
2022-09-15T16:28:21.671Z,101156.22
2022-09-15T16:30:48.191Z,101158.44
2022-09-15T16:33:16.820Z,101152.25
2022-09-15T16:35:52.919Z,101151.91
2022-09-15T16:38:20.452Z,101158.91
2022-09-15T16:40:47.731Z,101169.66
2022-09-15T16:43:16.884Z,101165.22
2022-09-15T16:45:44.000Z,101157.25
2022-09-15T16:48:11.048Z,101171.56
2022-09-15T16:50:40.149Z,101155.91
2022-09-15T16:53:20.635Z,101155.16
2022-09-15T16:55:52.031Z,101164.75
2022-09-15T16:58:20.097Z,101165.66
2022-09-15T17:00:49.190Z,101163.72
2022-09-15T17:03:18.751Z,101158.00
2022-09-15T17:05:48.828Z,101157.91
2022-09-15T17:08:16.169Z,101152.16
2022-09-15T17:10:42.894Z,101148.09
2022-09-15T17:13:15.076Z,101141.22
2022-09-15T17:15:42.215Z,101138.75
2022-09-15T17:18:10.116Z,101148.97
2022-09-15T17:20:39.340Z,101140.75
2022-09-15T17:23:18.277Z,101147.13
2022-09-15T17:25:51.414Z,101157.00
2022-09-15T17:28:22.730Z,101152.34
2022-09-15T17:30:51.519Z,101165.25
2022-09-15T17:33:19.587Z,101159.94
2022-09-15T17:35:46.384Z,101153.44
2022-09-15T17:38:13.433Z,101156.75
2022-09-15T17:40:39.991Z,101158.66
2022-09-15T17:43:13.978Z,101157.22
2022-09-15T17:45:40.623Z,101160.16
2022-09-15T17:48:07.224Z,101158.91
2022-09-15T17:50:34.826Z,101162.00
2022-09-15T17:53:01.315Z,101162.63
2022-09-15T17:55:33.077Z,101164.91
2022-09-15T17:58:01.303Z,101173.75
2022-09-15T18:00:39.635Z,101168.91
2022-09-15T18:03:15.807Z,101177.34
2022-09-15T18:05:42.346Z,101161.25
2022-09-15T18:08:09.627Z,101176.78
2022-09-15T18:10:36.660Z,101166.56
2022-09-15T18:13:05.404Z,101179.03
2022-09-15T18:15:34.034Z,101177.59
2022-09-15T18:18:04.055Z,101179.25
2022-09-15T18:20:32.929Z,101186.38
2022-09-15T18:23:00.385Z,101191.25
2022-09-15T18:25:30.932Z,101205.34
2022-09-15T18:27:59.046Z,101210.50
2022-09-15T18:30:28.894Z,101205.69
2022-09-15T18:32:55.872Z,101213.50
2022-09-15T18:35:23.381Z,101218.03
2022-09-15T18:37:55.513Z,101218.44
2022-09-15T18:40:21.988Z,101226.84
2022-09-15T18:42:49.097Z,101230.31
2022-09-15T18:45:17.294Z,101226.03
2022-09-15T18:47:47.149Z,101232.97
2022-09-15T18:50:14.191Z,101237.47
2022-09-15T18:52:41.807Z,101236.44
2022-09-15T18:55:11.394Z,101240.13
2022-09-15T18:57:39.399Z,101229.09
2022-09-15T19:00:12.140Z,101221.78
2022-09-15T19:02:39.062Z,101219.53
2022-09-15T19:05:06.410Z,101215.44
2022-09-15T19:07:32.938Z,101215.44
2022-09-15T19:10:00.650Z,101230.34
2022-09-15T19:12:27.468Z,101234.00
2022-09-15T19:14:54.548Z,101236.06
2022-09-15T19:17:21.350Z,101241.38
2022-09-15T19:19:47.904Z,101237.28
2022-09-15T19:22:14.387Z,101235.66
2022-09-15T19:24:40.874Z,101229.94
2022-09-15T19:27:08.225Z,101235.66
2022-09-15T19:29:36.447Z,101240.16
2022-09-15T19:32:09.774Z,101227.47
2022-09-15T19:34:38.481Z,101224.63
2022-09-15T19:37:11.346Z,101221.31
2022-09-15T19:39:40.688Z,101234.00
2022-09-15T19:42:09.253Z,101238.06
2022-09-15T19:44:35.775Z,101237.84
2022-09-15T19:47:02.317Z,101237.66
2022-09-15T19:49:28.786Z,101238.25
2022-09-15T19:51:55.581Z,101242.34
2022-09-15T19:54:23.952Z,101245.38
2022-09-15T19:56:51.105Z,101246.00
2022-09-15T19:59:18.548Z,101249.88
2022-09-15T20:01:45.141Z,101253.56
2022-09-15T20:04:12.400Z,101265.19
2022-09-15T20:06:39.432Z,101259.03
2022-09-15T20:09:07.119Z,101260.47
2022-09-15T20:11:34.874Z,101255.16
2022-09-15T20:14:01.638Z,101247.97
2022-09-15T20:16:29.210Z,101240.22
2022-09-15T20:18:56.001Z,101244.09
2022-09-15T20:21:45.984Z,101239.81
2022-09-15T20:24:12.364Z,101243.66
2022-09-15T20:26:38.900Z,101243.06
2022-09-15T20:29:05.359Z,101243.66
2022-09-15T20:31:34.684Z,101244.09
2022-09-15T20:34:02.353Z,101244.66
2022-09-15T20:36:33.374Z,101250.59
2022-09-15T20:39:01.466Z,101249.78
2022-09-15T20:41:28.523Z,101255.09
2022-09-15T20:43:55.617Z,101249.19
2022-09-15T20:46:23.472Z,101252.25
2022-09-15T20:48:51.248Z,101249.38
2022-09-15T20:51:23.414Z,101247.56
2022-09-15T20:53:54.921Z,101246.94
2022-09-15T20:56:25.691Z,101242.25
2022-09-15T20:58:53.859Z,101243.47
2022-09-15T21:01:43.456Z,101244.50
2022-09-15T21:04:10.854Z,101252.00
2022-09-15T21:06:38.665Z,101252.41
2022-09-15T21:09:06.250Z,101239.53
2022-09-15T21:11:33.204Z,101238.69
2022-09-15T21:13:59.886Z,101245.78
2022-09-15T21:16:28.271Z,101248.59
2022-09-15T21:18:57.083Z,101255.31
2022-09-15T21:21:25.868Z,101252.22
2022-09-15T21:23:54.708Z,101252.81
2022-09-15T21:26:26.292Z,101251.00
2022-09-15T21:28:54.181Z,101251.00
2022-09-15T21:31:23.280Z,101258.94
2022-09-15T21:33:51.212Z,101258.72
2022-09-15T21:36:29.638Z,101258.28
2022-09-15T21:38:58.200Z,101265.59
2022-09-15T21:41:27.332Z,101262.94
2022-09-15T21:43:55.273Z,101262.47
2022-09-15T21:46:26.581Z,101266.75
2022-09-15T21:48:55.175Z,101265.34
2022-09-15T21:51:24.949Z,101261.63
2022-09-15T21:53:56.800Z,101265.22
2022-09-15T21:56:24.146Z,101265.63
2022-09-15T21:58:50.766Z,101267.00
2022-09-15T22:01:20.183Z,101265.56
2022-09-15T22:03:55.577Z,101266.53
2022-09-15T22:06:27.682Z,101262.09
2022-09-15T22:08:55.368Z,101270.84
2022-09-15T22:11:22.644Z,101276.94
2022-09-15T22:13:49.325Z,101272.66
2022-09-15T22:16:20.352Z,101266.09
2022-09-15T22:18:47.560Z,101268.13
2022-09-15T22:21:20.578Z,101267.31
2022-09-15T22:23:48.481Z,101260.56
2022-09-15T22:26:18.224Z,101254.47
2022-09-15T22:28:45.367Z,101249.78
2022-09-15T22:31:13.320Z,101248.94
2022-09-15T22:33:43.155Z,101235.09
2022-09-15T22:36:15.728Z,101236.28
2022-09-15T22:38:42.825Z,101242.59
2022-09-15T22:41:14.139Z,101241.78
2022-09-15T22:43:42.977Z,101238.13
2022-09-15T22:46:09.796Z,101238.94
2022-09-15T22:48:40.984Z,101237.91
2022-09-15T22:51:09.395Z,101236.44
2022-09-15T22:53:35.975Z,101234.00
2022-09-15T22:56:09.132Z,101238.84
2022-09-15T22:58:36.858Z,101239.22
2022-09-15T23:01:12.146Z,101245.91
2022-09-15T23:03:39.528Z,101243.44
2022-09-15T23:06:07.779Z,101244.00
2022-09-15T23:08:35.440Z,101237.47
2022-09-15T23:11:06.439Z,101251.69
2022-09-15T23:13:33.694Z,101242.53
2022-09-15T23:16:00.312Z,101232.13
2022-09-15T23:18:29.702Z,101241.06
2022-09-15T23:21:04.237Z,101247.59
2022-09-15T23:23:30.985Z,101253.31
2022-09-15T23:25:57.398Z,101255.41
2022-09-15T23:28:23.847Z,101259.13
2022-09-15T23:30:57.857Z,101260.09
2022-09-15T23:33:25.985Z,101260.75
2022-09-15T23:35:52.800Z,101255.91
2022-09-15T23:38:20.163Z,101248.78
2022-09-15T23:40:48.307Z,101245.31
2022-09-15T23:43:14.764Z,101245.31
2022-09-15T23:45:45.116Z,101246.34
2022-09-15T23:48:13.408Z,101242.69
2022-09-15T23:50:41.424Z,101243.28
2022-09-15T23:53:08.034Z,101241.50
2022-09-15T23:55:34.809Z,101247.22
2022-09-15T23:58:01.263Z,101249.84
